Terminal Aerodrome Forecast
Issued by NWS

Home | Current Version | Previous Version | Text Only | Print | Product List | Glossary On
Versions: 1 2 3 4 5 6 7 8 9 10 11 12 13
532
FTUS42 KTAE 291120
TAFABY
TAF
KABY 291120Z 2912/3012 12008KT P6SM SCT060 BKN120
     FM291300 14005KT P6SM BKN025
     FM292000 18006KT 3SM TSRA BKN035CB
     FM300200 11004KT P6SM BKN060 OVC120=

USA.gov is the U.S. government's official web portal to all federal, state and local government web resources and services.